createdAt,value
2018-12-19T00:00:31.285Z,2.80
2018-12-19T00:02:58.168Z,3.20
2018-12-19T00:05:25.033Z,2.87
2018-12-19T00:07:51.475Z,2.77
2018-12-19T00:10:17.997Z,2.90
2018-12-19T00:12:44.504Z,3.10
2018-12-19T00:15:10.969Z,3.10
2018-12-19T00:17:37.729Z,2.97
2018-12-19T00:20:05.213Z,2.90
2018-12-19T00:22:31.602Z,3.30
2018-12-19T00:24:58.049Z,2.93
2018-12-19T00:27:25.492Z,3.60
2018-12-19T00:29:51.999Z,3.07
2018-12-19T00:32:18.462Z,3.20
2018-12-19T00:34:44.919Z,3.47
2018-12-19T00:37:11.354Z,3.33
2018-12-19T00:39:38.165Z,2.93
2018-12-19T00:42:05.011Z,3.00
2018-12-19T00:44:31.760Z,3.03
2018-12-19T00:46:58.232Z,3.50
2018-12-19T00:49:24.725Z,3.50
2018-12-19T00:51:51.234Z,3.27
2018-12-19T00:54:17.808Z,3.27
2018-12-19T00:56:44.515Z,3.20
2018-12-19T00:59:10.982Z,3.20
2018-12-19T01:01:37.488Z,3.20
2018-12-19T01:04:03.888Z,2.90
2018-12-19T01:06:30.721Z,2.90
2018-12-19T01:08:57.220Z,3.50
2018-12-19T01:11:23.675Z,3.43
2018-12-19T01:13:50.079Z,3.30
2018-12-19T01:16:16.509Z,3.33
2018-12-19T01:18:43.003Z,3.63
2018-12-19T01:21:09.803Z,3.50
2018-12-19T01:23:36.246Z,3.50
2018-12-19T01:26:02.900Z,3.53
2018-12-19T01:28:29.303Z,3.70
2018-12-19T01:30:55.978Z,3.40
2018-12-19T01:33:22.397Z,3.63
2018-12-19T01:35:48.912Z,3.50
2018-12-19T01:38:15.383Z,3.30
2018-12-19T01:40:42.218Z,3.30
2018-12-19T01:43:08.978Z,3.80
2018-12-19T01:45:35.431Z,3.07
2018-12-19T01:48:02.326Z,3.47
2018-12-19T01:50:28.860Z,3.77
2018-12-19T01:52:55.383Z,4.00
2018-12-19T01:55:21.865Z,4.20
2018-12-19T01:57:48.398Z,3.67
2018-12-19T02:00:15.028Z,3.40
2018-12-19T02:02:41.833Z,3.53
2018-12-19T02:05:08.298Z,3.60
2018-12-19T02:07:34.701Z,3.83
2018-12-19T02:10:01.495Z,3.40
2018-12-19T02:12:28.373Z,3.47
2018-12-19T02:14:55.190Z,3.50
2018-12-19T02:17:21.659Z,3.23
2018-12-19T02:19:48.086Z,3.57
2018-12-19T02:22:14.536Z,3.73
2018-12-19T02:24:41.018Z,3.50
2018-12-19T02:27:07.480Z,3.37
2018-12-19T02:29:33.946Z,3.60
2018-12-19T02:32:02.766Z,4.00
2018-12-19T02:34:30.169Z,3.67
2018-12-19T02:36:57.005Z,3.90
2018-12-19T02:39:23.427Z,3.53
2018-12-19T02:41:49.877Z,3.50
2018-12-19T02:44:16.366Z,3.10
2018-12-19T02:46:42.790Z,3.40
2018-12-19T02:49:09.220Z,3.80
2018-12-19T02:51:35.692Z,3.63
2018-12-19T02:54:02.577Z,4.10
2018-12-19T02:56:29.433Z,3.87
2018-12-19T02:58:55.812Z,4.20
2018-12-19T03:01:22.259Z,4.27
2018-12-19T03:03:48.710Z,3.90
2018-12-19T03:06:15.173Z,4.20
2018-12-19T03:08:41.623Z,4.00
2018-12-19T03:11:09.001Z,4.10
2018-12-19T03:13:35.593Z,4.10
2018-12-19T03:16:02.211Z,4.60
2018-12-19T03:18:28.599Z,4.60
2018-12-19T03:20:55.007Z,4.17
2018-12-19T03:23:21.786Z,4.30
2018-12-19T03:25:48.217Z,4.20
2018-12-19T03:28:14.701Z,4.40
2018-12-19T03:30:41.392Z,3.93
2018-12-19T03:33:07.883Z,4.40
2018-12-19T03:35:34.415Z,4.23
2018-12-19T03:38:01.831Z,4.57
2018-12-19T03:40:28.749Z,4.77
2018-12-19T03:42:55.174Z,4.70
2018-12-19T03:45:21.631Z,4.40
2018-12-19T03:47:48.014Z,4.87
2018-12-19T03:50:14.734Z,4.70
2018-12-19T03:52:41.268Z,4.33
2018-12-19T03:55:07.706Z,4.17
2018-12-19T03:57:34.468Z,4.30
2018-12-19T04:00:00.927Z,4.43
2018-12-19T04:02:27.441Z,4.50
2018-12-19T04:04:53.898Z,4.17
2018-12-19T04:07:20.712Z,4.43
2018-12-19T04:09:47.536Z,4.50
2018-12-19T04:12:14.059Z,4.00
2018-12-19T04:14:40.449Z,3.83
2018-12-19T04:17:07.075Z,3.90
2018-12-19T04:19:33.560Z,3.73
2018-12-19T04:22:00.005Z,4.10
2018-12-19T04:24:26.461Z,4.10
2018-12-19T04:26:53.307Z,3.90
2018-12-19T04:29:20.098Z,3.80
2018-12-19T04:31:46.641Z,4.00
2018-12-19T04:34:13.031Z,3.87
2018-12-19T04:36:39.933Z,3.80
2018-12-19T04:39:06.392Z,3.67
2018-12-19T04:41:33.243Z,4.00
2018-12-19T04:43:59.763Z,4.13
2018-12-19T04:46:26.238Z,3.47
2018-12-19T04:48:52.821Z,4.00
2018-12-19T04:51:19.721Z,4.10
2018-12-19T04:53:46.637Z,3.97
2018-12-19T04:56:13.445Z,3.83
2018-12-19T04:58:39.889Z,3.93
2018-12-19T05:01:06.351Z,4.33
2018-12-19T05:03:32.748Z,3.83
2018-12-19T05:05:59.250Z,3.87
2018-12-19T05:08:25.686Z,4.03
2018-12-19T05:10:52.101Z,4.30
2018-12-19T05:13:18.595Z,3.87
2018-12-19T05:15:45.235Z,4.33
2018-12-19T05:18:11.788Z,4.20
2018-12-19T05:20:38.226Z,4.70
2018-12-19T05:23:05.881Z,3.83
2018-12-19T05:25:32.379Z,4.13
2018-12-19T05:27:59.151Z,3.90
2018-12-19T05:30:25.634Z,4.30
2018-12-19T05:32:52.454Z,3.83
2018-12-19T05:35:18.915Z,4.43
2018-12-19T05:37:45.442Z,4.30
2018-12-19T05:40:18.662Z,4.50
2018-12-19T05:42:40.868Z,5.00
2018-12-19T05:45:07.524Z,4.70
2018-12-19T05:47:34.193Z,4.80
2018-12-19T05:50:00.830Z,5.50
2018-12-19T05:52:27.534Z,5.40
2018-12-19T05:54:54.100Z,5.43
2018-12-19T05:57:20.887Z,5.90
2018-12-19T05:59:47.407Z,5.53
2018-12-19T06:02:13.866Z,5.50
2018-12-19T06:04:40.294Z,5.53
2018-12-19T06:07:08.117Z,5.67
2018-12-19T06:09:34.527Z,5.07
2018-12-19T06:12:00.985Z,6.43
2018-12-19T06:14:27.822Z,6.80
2018-12-19T06:16:54.653Z,6.70
2018-12-19T06:19:21.154Z,6.67
2018-12-19T06:21:48.090Z,7.10
2018-12-19T06:24:14.501Z,6.90
2018-12-19T06:26:40.990Z,6.73
2018-12-19T06:29:07.655Z,6.87
2018-12-19T06:31:34.247Z,7.33
2018-12-19T06:34:00.928Z,7.77
2018-12-19T06:36:27.626Z,8.70
2018-12-19T06:38:54.521Z,8.77
2018-12-19T06:41:21.193Z,9.53
2018-12-19T06:43:47.805Z,8.40
2018-12-19T06:46:14.307Z,8.20
2018-12-19T06:48:40.750Z,8.43
2018-12-19T06:51:07.209Z,9.70
2018-12-19T06:53:33.703Z,8.47
2018-12-19T06:56:00.189Z,9.30
2018-12-19T06:58:26.642Z,8.50
2018-12-19T07:00:53.029Z,8.90
2018-12-19T07:03:19.439Z,8.90
2018-12-19T07:05:46.361Z,9.13
2018-12-19T07:08:12.776Z,8.53
2018-12-19T07:10:39.404Z,8.40
2018-12-19T07:13:05.958Z,9.10
2018-12-19T07:15:32.852Z,9.67
2018-12-19T07:17:59.495Z,8.37
2018-12-19T07:20:26.290Z,8.73
2018-12-19T07:22:52.786Z,8.33
2018-12-19T07:25:19.276Z,8.97
2018-12-19T07:27:45.794Z,8.97
2018-12-19T07:30:12.214Z,8.77
2018-12-19T07:32:38.625Z,8.97
2018-12-19T07:35:05.090Z,8.57
2018-12-19T07:37:31.512Z,8.33
2018-12-19T07:39:57.952Z,8.57
2018-12-19T07:42:24.517Z,8.10
2018-12-19T07:44:51.236Z,8.17
2018-12-19T07:47:17.747Z,8.07
2018-12-19T07:49:44.209Z,8.10
2018-12-19T07:52:10.641Z,8.70
2018-12-19T07:54:36.986Z,8.33
2018-12-19T07:57:03.861Z,8.10
2018-12-19T07:59:30.361Z,7.80
2018-12-19T08:01:57.341Z,8.07
2018-12-19T08:04:24.164Z,7.80
2018-12-19T08:06:50.609Z,8.30
2018-12-19T08:09:17.737Z,7.80
2018-12-19T08:11:44.396Z,7.63
2018-12-19T08:14:10.878Z,7.10
2018-12-19T08:16:37.401Z,7.23
2018-12-19T08:19:04.046Z,7.20
2018-12-19T08:21:30.880Z,7.07
2018-12-19T08:23:57.344Z,7.03
2018-12-19T08:26:23.805Z,7.47
2018-12-19T08:28:50.458Z,6.43
2018-12-19T08:31:17.033Z,6.80
2018-12-19T08:33:43.450Z,6.37
2018-12-19T08:36:09.867Z,7.43
2018-12-19T08:38:36.331Z,5.93
2018-12-19T08:41:02.867Z,7.00
2018-12-19T08:43:29.337Z,6.20
2018-12-19T08:45:56.556Z,6.00
2018-12-19T08:48:23.213Z,6.03
2018-12-19T08:50:49.710Z,6.27
2018-12-19T08:53:16.692Z,6.23
2018-12-19T08:55:43.658Z,5.90
2018-12-19T08:58:10.218Z,5.93
2018-12-19T09:00:36.652Z,6.27
2018-12-19T09:03:03.121Z,6.43
2018-12-19T09:05:29.524Z,6.00
2018-12-19T09:07:56.417Z,5.97
2018-12-19T09:10:23.078Z,5.57
2018-12-19T09:12:49.566Z,6.40
2018-12-19T09:15:18.052Z,6.07
2018-12-19T09:17:44.503Z,6.20
2018-12-19T09:20:11.218Z,5.63
2018-12-19T09:22:37.690Z,5.93
2018-12-19T09:25:04.344Z,5.43
2018-12-19T09:27:30.760Z,5.57
2018-12-19T09:29:57.172Z,6.27
2018-12-19T09:32:23.631Z,5.80
2018-12-19T09:34:50.451Z,6.80
2018-12-19T09:37:17.930Z,5.43
2018-12-19T09:39:46.177Z,6.10
2018-12-19T09:42:12.670Z,6.07
2018-12-19T09:44:39.133Z,6.27
2018-12-19T09:47:05.575Z,5.93
2018-12-19T09:49:32.033Z,5.93
2018-12-19T09:51:58.662Z,5.90
2018-12-19T09:54:25.205Z,6.13
2018-12-19T09:56:51.722Z,5.63
2018-12-19T09:59:18.183Z,6.20
2018-12-19T10:01:44.981Z,5.90
2018-12-19T10:04:11.523Z,5.47
2018-12-19T10:06:37.937Z,6.13
2018-12-19T10:09:07.602Z,6.07
2018-12-19T10:11:34.709Z,5.40
2018-12-19T10:14:01.230Z,5.50
2018-12-19T10:16:27.695Z,5.63
2018-12-19T10:18:54.223Z,5.07
2018-12-19T10:21:21.791Z,4.80
2018-12-19T10:23:48.854Z,4.97
2018-12-19T10:26:15.485Z,4.93
2018-12-19T10:28:42.081Z,4.80
2018-12-19T10:31:08.542Z,4.73
2018-12-19T10:33:35.229Z,4.60
2018-12-19T10:36:01.714Z,4.20
2018-12-19T10:38:28.569Z,4.20
2018-12-19T10:40:55.372Z,4.50
2018-12-19T10:43:21.952Z,4.00
2018-12-19T10:45:48.357Z,3.70
2018-12-19T10:48:14.846Z,3.70
2018-12-19T10:50:41.660Z,3.97
2018-12-19T10:53:08.075Z,3.60
2018-12-19T10:55:34.536Z,3.80
2018-12-19T10:58:01.097Z,3.90
2018-12-19T11:00:33.536Z,4.03
2018-12-19T11:03:01.152Z,3.40
2018-12-19T11:05:27.583Z,3.30
2018-12-19T11:07:54.351Z,3.20
2018-12-19T11:10:20.794Z,3.57
2018-12-19T11:12:47.356Z,3.00
2018-12-19T11:15:13.944Z,3.77
2018-12-19T11:17:40.396Z,3.90
2018-12-19T11:20:08.626Z,4.23
2018-12-19T11:22:35.590Z,3.70
2018-12-19T11:25:03.231Z,3.73
2018-12-19T11:27:29.702Z,3.30
2018-12-19T11:29:56.095Z,3.33
2018-12-19T11:32:22.504Z,3.40
2018-12-19T11:34:48.953Z,2.93
2018-12-19T11:37:15.426Z,3.30
2018-12-19T11:39:41.918Z,3.17
2018-12-19T11:42:08.378Z,3.23
2018-12-19T11:44:34.825Z,3.40
2018-12-19T11:47:01.263Z,3.23
2018-12-19T11:49:27.696Z,3.60
2018-12-19T11:51:54.687Z,3.20
2018-12-19T11:54:21.189Z,2.93
2018-12-19T11:56:48.214Z,3.20
2018-12-19T11:59:15.142Z,3.50
2018-12-19T12:01:41.928Z,3.00
2018-12-19T12:04:08.423Z,3.30
2018-12-19T12:06:34.899Z,3.33
2018-12-19T12:09:01.546Z,3.17
2018-12-19T12:11:28.014Z,3.37
2018-12-19T12:13:54.542Z,2.90
2018-12-19T12:16:20.948Z,3.50
2018-12-19T12:18:47.398Z,3.27
2018-12-19T12:21:13.895Z,3.00
2018-12-19T12:23:47.157Z,3.43
2018-12-19T12:26:09.194Z,2.90
2018-12-19T12:28:36.094Z,3.27
2018-12-19T12:31:02.616Z,3.20
2018-12-19T12:33:29.071Z,2.97
2018-12-19T12:35:55.761Z,3.40
2018-12-19T12:38:22.346Z,2.80
2018-12-19T12:40:49.031Z,2.80
2018-12-19T12:43:15.470Z,2.87
2018-12-19T12:45:42.259Z,2.60
2018-12-19T12:48:08.854Z,3.57
2018-12-19T12:50:35.312Z,3.00
2018-12-19T12:53:02.037Z,2.77
2018-12-19T12:55:28.467Z,2.50
2018-12-19T12:57:54.967Z,2.40
2018-12-19T13:00:21.435Z,2.77
2018-12-19T13:02:48.198Z,2.60
2018-12-19T13:05:15.191Z,2.70
2018-12-19T13:07:42.060Z,2.40
2018-12-19T13:10:10.664Z,2.80
2018-12-19T13:12:37.118Z,2.57
2018-12-19T13:15:05.163Z,2.63
2018-12-19T13:17:31.953Z,2.63
2018-12-19T13:19:58.546Z,2.57
2018-12-19T13:22:25.184Z,2.43
2018-12-19T13:24:51.993Z,2.53
2018-12-19T13:27:18.510Z,2.33
2018-12-19T13:29:45.482Z,2.10
2018-12-19T13:32:12.168Z,2.07
2018-12-19T13:34:38.637Z,1.73
2018-12-19T13:37:05.187Z,1.83
2018-12-19T13:39:32.030Z,1.83
2018-12-19T13:41:58.646Z,1.83
2018-12-19T13:44:25.533Z,1.97
2018-12-19T13:46:52.071Z,1.97
2018-12-19T13:49:18.639Z,2.00
2018-12-19T13:51:45.145Z,1.60
2018-12-19T13:54:11.662Z,1.93
2018-12-19T13:56:38.140Z,1.80
2018-12-19T13:59:05.241Z,1.90
2018-12-19T14:01:31.682Z,1.97
2018-12-19T14:03:58.177Z,1.57
2018-12-19T14:06:24.987Z,2.47
2018-12-19T14:08:51.783Z,1.70
2018-12-19T14:11:19.581Z,2.03
2018-12-19T14:13:46.110Z,1.90
2018-12-19T14:16:12.533Z,1.77
2018-12-19T14:18:38.997Z,1.80
2018-12-19T14:21:05.539Z,1.70
2018-12-19T14:23:32.121Z,1.80
2018-12-19T14:25:59.165Z,1.70
2018-12-19T14:28:25.822Z,1.70
2018-12-19T14:30:52.399Z,1.47
2018-12-19T14:33:18.790Z,1.60
2018-12-19T14:35:45.439Z,1.70
2018-12-19T14:38:12.081Z,1.73
2018-12-19T14:40:38.673Z,2.80
2018-12-19T14:43:05.458Z,2.57
2018-12-19T14:45:32.008Z,1.57
2018-12-19T14:47:58.943Z,2.00
2018-12-19T14:50:25.385Z,2.00
2018-12-19T14:52:51.860Z,1.90
2018-12-19T14:55:18.325Z,1.60
2018-12-19T14:57:44.741Z,2.10
2018-12-19T15:00:11.560Z,2.30
2018-12-19T15:02:38.322Z,2.03
2018-12-19T15:05:05.732Z,2.10
2018-12-19T15:07:32.225Z,2.40
2018-12-19T15:09:58.719Z,2.17
2018-12-19T15:12:25.934Z,2.10
2018-12-19T15:14:52.752Z,2.30
2018-12-19T15:17:19.203Z,2.30
2018-12-19T15:19:45.662Z,1.93
2018-12-19T15:22:12.131Z,2.30
2018-12-19T15:24:38.951Z,1.90
2018-12-19T15:27:07.751Z,2.07
2018-12-19T15:29:34.219Z,2.10
2018-12-19T15:32:00.767Z,2.27
2018-12-19T15:34:27.362Z,2.30
2018-12-19T15:36:53.861Z,1.83
2018-12-19T15:39:20.336Z,2.17
2018-12-19T15:41:46.915Z,2.10
2018-12-19T15:44:13.519Z,2.27
2018-12-19T15:46:39.999Z,1.70
2018-12-19T15:49:06.480Z,2.07
2018-12-19T15:51:33.324Z,1.93
2018-12-19T15:54:00.145Z,2.03
2018-12-19T15:56:26.711Z,2.17
2018-12-19T15:58:53.566Z,2.10
2018-12-19T16:01:20.053Z,1.97
2018-12-19T16:03:46.492Z,1.70
2018-12-19T16:06:13.047Z,1.60
2018-12-19T16:08:39.490Z,2.20
2018-12-19T16:11:06.002Z,2.00
2018-12-19T16:13:32.796Z,1.87
2018-12-19T16:15:59.578Z,2.73
2018-12-19T16:18:27.147Z,2.47
2018-12-19T16:20:53.707Z,2.00
2018-12-19T16:23:20.552Z,2.33
2018-12-19T16:25:46.985Z,1.80
2018-12-19T16:28:13.460Z,1.97
2018-12-19T16:30:40.041Z,2.40
2018-12-19T16:33:06.559Z,2.23
2018-12-19T16:35:33.366Z,2.13
2018-12-19T16:38:00.227Z,2.07
2018-12-19T16:40:27.593Z,2.20
2018-12-19T16:42:54.069Z,2.10
2018-12-19T16:45:20.574Z,2.60
2018-12-19T16:47:47.063Z,2.07
2018-12-19T16:50:15.542Z,2.20
2018-12-19T16:52:42.041Z,2.53
2018-12-19T16:55:08.537Z,2.00
2018-12-19T16:57:35.255Z,2.20
2018-12-19T17:00:01.738Z,2.00
2018-12-19T17:02:28.241Z,2.03
2018-12-19T17:04:54.776Z,2.67
2018-12-19T17:07:21.759Z,2.13
2018-12-19T17:09:48.193Z,2.23
2018-12-19T17:12:14.989Z,2.10
2018-12-19T17:14:41.544Z,2.50
2018-12-19T17:17:08.394Z,2.10
2018-12-19T17:19:35.732Z,2.70
2018-12-19T17:22:02.524Z,2.10
2018-12-19T17:24:35.076Z,1.97
2018-12-19T17:27:01.484Z,2.20
2018-12-19T17:29:28.340Z,2.17
2018-12-19T17:31:54.858Z,2.23
2018-12-19T17:34:21.923Z,2.40
2018-12-19T17:36:48.465Z,2.90
2018-12-19T17:39:15.093Z,2.20
2018-12-19T17:41:41.755Z,2.30
2018-12-19T17:44:08.380Z,2.10
2018-12-19T17:46:34.790Z,2.33
2018-12-19T17:49:01.445Z,2.40
2018-12-19T17:51:28.392Z,2.53
2018-12-19T17:53:54.984Z,2.80
2018-12-19T17:56:21.397Z,2.40
2018-12-19T17:58:47.866Z,3.33
2018-12-19T18:01:14.432Z,2.43
2018-12-19T18:03:40.867Z,2.57
2018-12-19T18:06:08.224Z,2.47
2018-12-19T18:08:34.730Z,2.57
2018-12-19T18:11:01.178Z,2.70
2018-12-19T18:13:28.003Z,2.53
2018-12-19T18:15:54.444Z,3.03
2018-12-19T18:18:21.183Z,2.87
2018-12-19T18:20:48.016Z,2.57
2018-12-19T18:23:14.844Z,2.37
2018-12-19T18:25:41.302Z,2.63
2018-12-19T18:28:07.803Z,2.30
2018-12-19T18:30:34.313Z,2.47
2018-12-19T18:33:00.800Z,2.70
2018-12-19T18:35:27.258Z,2.83
2018-12-19T18:37:53.767Z,2.50
2018-12-19T18:40:20.206Z,3.27
2018-12-19T18:42:46.715Z,2.57
2018-12-19T18:45:13.560Z,2.90
2018-12-19T18:47:40.012Z,3.10
2018-12-19T18:50:06.890Z,2.47
2018-12-19T18:52:33.459Z,2.80
2018-12-19T18:55:00.349Z,2.87
2018-12-19T18:57:26.758Z,2.87
2018-12-19T18:59:54.286Z,2.80
2018-12-19T19:02:20.859Z,2.73
2018-12-19T19:04:47.444Z,3.07
2018-12-19T19:07:14.038Z,2.83
2018-12-19T19:09:40.664Z,3.00
2018-12-19T19:12:07.117Z,2.40
2018-12-19T19:14:33.560Z,2.57
2018-12-19T19:17:00.436Z,3.03
2018-12-19T19:19:26.838Z,2.80
2018-12-19T19:21:53.769Z,2.77
2018-12-19T19:24:22.400Z,2.73
2018-12-19T19:26:48.886Z,3.03
2018-12-19T19:29:15.549Z,3.17
2018-12-19T19:31:42.217Z,3.43
2018-12-19T19:34:08.701Z,3.63
2018-12-19T19:36:35.617Z,3.63
2018-12-19T19:39:02.623Z,3.10
2018-12-19T19:41:30.163Z,3.83
2018-12-19T19:43:56.745Z,3.53
2018-12-19T19:46:23.307Z,4.47
2018-12-19T19:48:50.113Z,4.30
2018-12-19T19:51:17.142Z,4.07
2018-12-19T19:53:43.874Z,3.70
2018-12-19T19:56:11.518Z,4.10
2018-12-19T19:58:37.966Z,3.97
2018-12-19T20:01:04.513Z,3.70
2018-12-19T20:03:30.952Z,4.10
2018-12-19T20:05:58.514Z,4.07
2018-12-19T20:08:25.247Z,4.63
2018-12-19T20:10:51.703Z,4.33
2018-12-19T20:13:18.246Z,4.43
2018-12-19T20:15:44.797Z,4.60
2018-12-19T20:18:11.956Z,4.03
2018-12-19T20:20:38.410Z,4.30
2018-12-19T20:23:05.172Z,4.20
2018-12-19T20:25:33.076Z,4.13
2018-12-19T20:27:59.892Z,4.70
2018-12-19T20:30:26.362Z,4.20
2018-12-19T20:32:52.915Z,4.50
2018-12-19T20:35:19.748Z,4.43
2018-12-19T20:37:46.224Z,4.77
2018-12-19T20:40:12.815Z,4.60
2018-12-19T20:42:39.282Z,4.40
2018-12-19T20:45:06.197Z,4.83
2018-12-19T20:47:32.611Z,4.27
2018-12-19T20:49:59.187Z,4.13
2018-12-19T20:52:26.148Z,4.70
2018-12-19T20:54:52.675Z,5.20
2018-12-19T20:57:19.179Z,4.93
2018-12-19T20:59:45.682Z,4.93
2018-12-19T21:02:12.685Z,5.00
2018-12-19T21:04:39.195Z,5.83
2018-12-19T21:07:06.086Z,5.60
2018-12-19T21:09:33.000Z,5.87
2018-12-19T21:11:59.770Z,5.77
2018-12-19T21:14:26.187Z,5.50
2018-12-19T21:16:58.720Z,5.57
2018-12-19T21:19:25.260Z,5.83
2018-12-19T21:21:51.815Z,5.57
2018-12-19T21:24:18.377Z,5.67
2018-12-19T21:26:45.044Z,5.57
2018-12-19T21:29:12.101Z,4.90
2018-12-19T21:31:39.142Z,5.17
2018-12-19T21:34:05.758Z,5.43
2018-12-19T21:36:32.286Z,5.20
2018-12-19T21:38:59.099Z,5.87
2018-12-19T21:41:25.758Z,5.60
2018-12-19T21:43:53.729Z,5.50
2018-12-19T21:46:21.149Z,5.77
2018-12-19T21:48:47.781Z,6.50
2018-12-19T21:51:14.610Z,6.07
2018-12-19T21:53:41.286Z,6.10
2018-12-19T21:56:07.869Z,6.00
2018-12-19T21:58:34.621Z,6.50
2018-12-19T22:01:01.780Z,6.47
2018-12-19T22:03:29.251Z,6.90
2018-12-19T22:05:55.914Z,6.67
2018-12-19T22:08:22.415Z,6.90
2018-12-19T22:10:48.880Z,6.63
2018-12-19T22:13:15.554Z,6.37
2018-12-19T22:15:42.150Z,6.23
2018-12-19T22:18:14.747Z,7.07
2018-12-19T22:20:42.044Z,7.13
2018-12-19T22:23:09.053Z,6.00
2018-12-19T22:25:35.767Z,6.73
2018-12-19T22:28:02.591Z,6.47
2018-12-19T22:30:29.285Z,6.20
2018-12-19T22:32:57.044Z,6.37
2018-12-19T22:35:23.709Z,5.93
2018-12-19T22:37:50.218Z,6.83
2018-12-19T22:40:16.833Z,6.87
2018-12-19T22:42:43.433Z,7.27
2018-12-19T22:45:10.335Z,6.90
2018-12-19T22:47:36.871Z,6.47
2018-12-19T22:50:04.809Z,6.37
2018-12-19T22:52:31.359Z,7.07
2018-12-19T22:54:57.918Z,6.63
2018-12-19T22:57:24.564Z,7.80
2018-12-19T22:59:51.157Z,6.97
2018-12-19T23:02:24.139Z,7.13
2018-12-19T23:04:50.805Z,7.63
2018-12-19T23:07:17.440Z,8.33
2018-12-19T23:09:44.427Z,7.73
2018-12-19T23:12:11.525Z,7.23
2018-12-19T23:14:39.711Z,7.53
2018-12-19T23:20:09.100Z,7.80
2018-12-19T23:22:35.710Z,7.97
2018-12-19T23:25:03.538Z,7.47
2018-12-19T23:27:31.100Z,7.97
2018-12-19T23:29:58.570Z,8.60
2018-12-19T23:32:28.352Z,8.30
2018-12-19T23:34:55.184Z,8.27
2018-12-19T23:37:22.133Z,8.43
2018-12-19T23:39:48.700Z,8.53
2018-12-19T23:42:16.361Z,8.70
2018-12-19T23:44:42.927Z,8.17
2018-12-19T23:47:09.418Z,8.30
2018-12-19T23:49:35.940Z,9.50
2018-12-19T23:52:02.784Z,8.93
2018-12-19T23:54:29.585Z,9.40
2018-12-19T23:56:57.653Z,9.70
2018-12-19T23:59:25.033Z,8.83
